sensor_id;sensor_type;location;lat;lon;timestamp;P1;durP1;ratioP1;P2;durP2;ratioP2
67558;SDS011;54388;53.536;49.300;2023-04-03T00:00:53;19.42;;;6.50;;
67558;SDS011;54388;53.536;49.300;2023-04-03T00:03:21;17.70;;;6.07;;
67558;SDS011;54388;53.536;49.300;2023-04-03T00:05:48;21.90;;;6.30;;
67558;SDS011;54388;53.536;49.300;2023-04-03T00:08:16;20.33;;;5.90;;
67558;SDS011;54388;53.536;49.300;2023-04-03T00:10:43;18.67;;;6.38;;
67558;SDS011;54388;53.536;49.300;2023-04-03T00:13:10;23.00;;;6.13;;
67558;SDS011;54388;53.536;49.300;2023-04-03T00:15:37;18.70;;;6.10;;
67558;SDS011;54388;53.536;49.300;2023-04-03T00:18:04;31.98;;;7.30;;
67558;SDS011;54388;53.536;49.300;2023-04-03T00:20:34;21.60;;;5.68;;
67558;SDS011;54388;53.536;49.300;2023-04-03T00:23:01;19.50;;;5.88;;
67558;SDS011;54388;53.536;49.300;2023-04-03T00:25:28;58.97;;;9.88;;
67558;SDS011;54388;53.536;49.300;2023-04-03T00:27:55;36.42;;;8.30;;
67558;SDS011;54388;53.536;49.300;2023-04-03T00:30:22;35.08;;;8.65;;
67558;SDS011;54388;53.536;49.300;2023-04-03T00:32:49;29.13;;;8.75;;
67558;SDS011;54388;53.536;49.300;2023-04-03T00:35:18;26.73;;;7.55;;
67558;SDS011;54388;53.536;49.300;2023-04-03T00:37:46;29.33;;;6.88;;
67558;SDS011;54388;53.536;49.300;2023-04-03T00:40:14;23.92;;;7.50;;
67558;SDS011;54388;53.536;49.300;2023-04-03T00:42:42;25.90;;;8.25;;
67558;SDS011;54388;53.536;49.300;2023-04-03T00:47:44;27.65;;;8.13;;
67558;SDS011;54388;53.536;49.300;2023-04-03T00:50:11;19.20;;;6.75;;
67558;SDS011;54388;53.536;49.300;2023-04-03T00:52:38;30.25;;;6.97;;
67558;SDS011;54388;53.536;49.300;2023-04-03T00:55:07;24.63;;;7.05;;
67558;SDS011;54388;53.536;49.300;2023-04-03T00:57:35;27.83;;;6.38;;
67558;SDS011;54388;53.536;49.300;2023-04-03T01:00:06;22.55;;;8.07;;
67558;SDS011;54388;53.536;49.300;2023-04-03T01:02:36;21.45;;;7.65;;
67558;SDS011;54388;53.536;49.300;2023-04-03T01:05:03;19.65;;;6.50;;
67558;SDS011;54388;53.536;49.300;2023-04-03T01:07:30;25.20;;;7.20;;
67558;SDS011;54388;53.536;49.300;2023-04-03T01:10:00;19.35;;;6.63;;
67558;SDS011;54388;53.536;49.300;2023-04-03T01:12:30;20.52;;;6.45;;
67558;SDS011;54388;53.536;49.300;2023-04-03T01:15:09;26.55;;;7.80;;
67558;SDS011;54388;53.536;49.300;2023-04-03T01:17:42;25.88;;;7.40;;
67558;SDS011;54388;53.536;49.300;2023-04-03T01:26:34;50.78;;;8.18;;
67558;SDS011;54388;53.536;49.300;2023-04-03T01:29:01;24.92;;;7.10;;
67558;SDS011;54388;53.536;49.300;2023-04-03T01:34:02;30.45;;;6.55;;
67558;SDS011;54388;53.536;49.300;2023-04-03T01:36:30;20.90;;;6.03;;
67558;SDS011;54388;53.536;49.300;2023-04-03T01:38:58;28.75;;;7.22;;
67558;SDS011;54388;53.536;49.300;2023-04-03T01:41:26;34.20;;;7.57;;
67558;SDS011;54388;53.536;49.300;2023-04-03T01:43:53;27.33;;;7.22;;
67558;SDS011;54388;53.536;49.300;2023-04-03T01:46:20;30.00;;;8.07;;
67558;SDS011;54388;53.536;49.300;2023-04-03T01:48:47;25.50;;;7.18;;
67558;SDS011;54388;53.536;49.300;2023-04-03T01:51:15;32.50;;;7.88;;
67558;SDS011;54388;53.536;49.300;2023-04-03T01:53:42;56.35;;;9.80;;
67558;SDS011;54388;53.536;49.300;2023-04-03T01:56:09;38.55;;;9.35;;
67558;SDS011;54388;53.536;49.300;2023-04-03T01:58:35;34.50;;;8.77;;
67558;SDS011;54388;53.536;49.300;2023-04-03T02:01:02;41.33;;;8.82;;
67558;SDS011;54388;53.536;49.300;2023-04-03T02:03:28;40.38;;;8.05;;
67558;SDS011;54388;53.536;49.300;2023-04-03T02:05:56;68.22;;;9.93;;
67558;SDS011;54388;53.536;49.300;2023-04-03T02:08:23;116.97;;;27.40;;
67558;SDS011;54388;53.536;49.300;2023-04-03T02:10:49;91.05;;;17.02;;
67558;SDS011;54388;53.536;49.300;2023-04-03T02:13:17;93.95;;;14.90;;
67558;SDS011;54388;53.536;49.300;2023-04-03T02:15:44;75.38;;;17.55;;
67558;SDS011;54388;53.536;49.300;2023-04-03T02:18:11;90.57;;;13.63;;
67558;SDS011;54388;53.536;49.300;2023-04-03T02:20:37;63.08;;;14.40;;
67558;SDS011;54388;53.536;49.300;2023-04-03T02:23:04;83.57;;;13.85;;
67558;SDS011;54388;53.536;49.300;2023-04-03T02:25:34;71.57;;;12.23;;
67558;SDS011;54388;53.536;49.300;2023-04-03T02:28:00;46.85;;;7.95;;
67558;SDS011;54388;53.536;49.300;2023-04-03T02:30:27;33.00;;;8.40;;
67558;SDS011;54388;53.536;49.300;2023-04-03T02:32:53;40.25;;;7.95;;
67558;SDS011;54388;53.536;49.300;2023-04-03T02:35:20;42.55;;;9.10;;
67558;SDS011;54388;53.536;49.300;2023-04-03T02:37:47;43.20;;;7.72;;
67558;SDS011;54388;53.536;49.300;2023-04-03T02:40:13;32.33;;;7.72;;
67558;SDS011;54388;53.536;49.300;2023-04-03T02:42:40;33.97;;;7.60;;
67558;SDS011;54388;53.536;49.300;2023-04-03T02:45:07;33.35;;;8.00;;
67558;SDS011;54388;53.536;49.300;2023-04-03T02:47:33;39.42;;;9.55;;
67558;SDS011;54388;53.536;49.300;2023-04-03T02:50:00;68.40;;;9.65;;
67558;SDS011;54388;53.536;49.300;2023-04-03T02:52:27;52.97;;;9.13;;
67558;SDS011;54388;53.536;49.300;2023-04-03T02:54:54;82.80;;;10.05;;
67558;SDS011;54388;53.536;49.300;2023-04-03T02:57:21;45.95;;;9.25;;
67558;SDS011;54388;53.536;49.300;2023-04-03T02:59:48;74.88;;;12.32;;
67558;SDS011;54388;53.536;49.300;2023-04-03T03:02:15;64.50;;;10.02;;
67558;SDS011;54388;53.536;49.300;2023-04-03T03:04:42;56.70;;;9.73;;
67558;SDS011;54388;53.536;49.300;2023-04-03T03:07:08;76.40;;;11.50;;
67558;SDS011;54388;53.536;49.300;2023-04-03T03:09:36;38.17;;;8.38;;
67558;SDS011;54388;53.536;49.300;2023-04-03T03:12:03;56.47;;;9.30;;
67558;SDS011;54388;53.536;49.300;2023-04-03T03:14:30;57.70;;;10.23;;
67558;SDS011;54388;53.536;49.300;2023-04-03T03:16:57;40.15;;;9.00;;
67558;SDS011;54388;53.536;49.300;2023-04-03T03:19:24;49.13;;;8.63;;
67558;SDS011;54388;53.536;49.300;2023-04-03T03:21:50;69.53;;;11.65;;
67558;SDS011;54388;53.536;49.300;2023-04-03T03:24:17;70.10;;;10.43;;
67558;SDS011;54388;53.536;49.300;2023-04-03T03:26:44;39.67;;;10.80;;
67558;SDS011;54388;53.536;49.300;2023-04-03T03:29:11;61.33;;;14.43;;
67558;SDS011;54388;53.536;49.300;2023-04-03T03:31:38;72.85;;;15.27;;
67558;SDS011;54388;53.536;49.300;2023-04-03T03:34:05;82.38;;;16.35;;
67558;SDS011;54388;53.536;49.300;2023-04-03T03:36:31;79.50;;;14.05;;
67558;SDS011;54388;53.536;49.300;2023-04-03T03:38:58;47.97;;;12.02;;
67558;SDS011;54388;53.536;49.300;2023-04-03T03:41:25;48.65;;;13.70;;
67558;SDS011;54388;53.536;49.300;2023-04-03T03:43:52;56.22;;;14.57;;
67558;SDS011;54388;53.536;49.300;2023-04-03T03:46:18;54.40;;;10.95;;
67558;SDS011;54388;53.536;49.300;2023-04-03T03:48:45;56.75;;;10.82;;
67558;SDS011;54388;53.536;49.300;2023-04-03T03:51:12;65.13;;;11.50;;
67558;SDS011;54388;53.536;49.300;2023-04-03T03:53:39;49.50;;;10.90;;
67558;SDS011;54388;53.536;49.300;2023-04-03T03:56:06;53.45;;;9.32;;
67558;SDS011;54388;53.536;49.300;2023-04-03T03:58:33;73.00;;;9.40;;
67558;SDS011;54388;53.536;49.300;2023-04-03T04:01:00;85.85;;;8.43;;
67558;SDS011;54388;53.536;49.300;2023-04-03T04:03:28;54.75;;;7.47;;
67558;SDS011;54388;53.536;49.300;2023-04-03T04:05:55;71.22;;;8.80;;
67558;SDS011;54388;53.536;49.300;2023-04-03T04:08:22;64.68;;;8.88;;
67558;SDS011;54388;53.536;49.300;2023-04-03T04:10:49;42.40;;;4.60;;
67558;SDS011;54388;53.536;49.300;2023-04-03T04:13:15;28.65;;;2.72;;
67558;SDS011;54388;53.536;49.300;2023-04-03T04:15:43;37.47;;;3.33;;
67558;SDS011;54388;53.536;49.300;2023-04-03T04:18:10;46.42;;;3.90;;
67558;SDS011;54388;53.536;49.300;2023-04-03T04:20:36;25.15;;;3.13;;
67558;SDS011;54388;53.536;49.300;2023-04-03T04:23:03;15.73;;;1.70;;
67558;SDS011;54388;53.536;49.300;2023-04-03T04:25:30;13.48;;;1.80;;
67558;SDS011;54388;53.536;49.300;2023-04-03T04:27:57;30.20;;;2.33;;
67558;SDS011;54388;53.536;49.300;2023-04-03T04:30:23;22.83;;;2.60;;
67558;SDS011;54388;53.536;49.300;2023-04-03T04:32:50;23.10;;;2.03;;
67558;SDS011;54388;53.536;49.300;2023-04-03T04:35:17;8.10;;;1.25;;
67558;SDS011;54388;53.536;49.300;2023-04-03T04:37:44;53.38;;;4.05;;
67558;SDS011;54388;53.536;49.300;2023-04-03T04:40:11;27.02;;;2.38;;
67558;SDS011;54388;53.536;49.300;2023-04-03T04:42:37;31.80;;;3.05;;
67558;SDS011;54388;53.536;49.300;2023-04-03T04:45:04;29.30;;;2.30;;
67558;SDS011;54388;53.536;49.300;2023-04-03T04:47:31;27.10;;;3.05;;
67558;SDS011;54388;53.536;49.300;2023-04-03T04:49:58;23.80;;;2.25;;
67558;SDS011;54388;53.536;49.300;2023-04-03T04:52:25;24.73;;;2.47;;
67558;SDS011;54388;53.536;49.300;2023-04-03T04:54:52;11.80;;;1.33;;
67558;SDS011;54388;53.536;49.300;2023-04-03T04:57:19;20.92;;;2.20;;
67558;SDS011;54388;53.536;49.300;2023-04-03T04:59:45;13.70;;;1.80;;
67558;SDS011;54388;53.536;49.300;2023-04-03T05:02:12;42.80;;;4.18;;
67558;SDS011;54388;53.536;49.300;2023-04-03T05:04:39;19.30;;;2.13;;
67558;SDS011;54388;53.536;49.300;2023-04-03T05:07:06;20.23;;;2.92;;
67558;SDS011;54388;53.536;49.300;2023-04-03T05:09:33;38.60;;;3.55;;
67558;SDS011;54388;53.536;49.300;2023-04-03T05:12:00;18.73;;;2.10;;
67558;SDS011;54388;53.536;49.300;2023-04-03T05:14:28;14.90;;;1.85;;
67558;SDS011;54388;53.536;49.300;2023-04-03T05:16:56;25.80;;;2.60;;
67558;SDS011;54388;53.536;49.300;2023-04-03T05:19:23;25.98;;;2.22;;
67558;SDS011;54388;53.536;49.300;2023-04-03T05:21:50;26.90;;;3.05;;
67558;SDS011;54388;53.536;49.300;2023-04-03T05:24:17;9.25;;;1.30;;
67558;SDS011;54388;53.536;49.300;2023-04-03T05:26:44;12.95;;;1.90;;
67558;SDS011;54388;53.536;49.300;2023-04-03T05:29:11;31.45;;;2.50;;
67558;SDS011;54388;53.536;49.300;2023-04-03T05:31:37;7.60;;;1.17;;
67558;SDS011;54388;53.536;49.300;2023-04-03T05:34:04;17.35;;;1.67;;
67558;SDS011;54388;53.536;49.300;2023-04-03T05:36:31;7.75;;;1.50;;
67558;SDS011;54388;53.536;49.300;2023-04-03T05:38:58;6.82;;;1.10;;
67558;SDS011;54388;53.536;49.300;2023-04-03T05:41:25;17.45;;;1.90;;
67558;SDS011;54388;53.536;49.300;2023-04-03T05:43:52;7.60;;;1.77;;
67558;SDS011;54388;53.536;49.300;2023-04-03T05:46:19;11.35;;;1.42;;
67558;SDS011;54388;53.536;49.300;2023-04-03T05:48:46;8.27;;;1.40;;
67558;SDS011;54388;53.536;49.300;2023-04-03T05:51:15;9.88;;;1.50;;
67558;SDS011;54388;53.536;49.300;2023-04-03T05:53:44;18.67;;;2.28;;
67558;SDS011;54388;53.536;49.300;2023-04-03T05:56:13;9.55;;;1.55;;
67558;SDS011;54388;53.536;49.300;2023-04-03T05:58:40;10.95;;;1.35;;
67558;SDS011;54388;53.536;49.300;2023-04-03T06:01:07;48.50;;;3.40;;
67558;SDS011;54388;53.536;49.300;2023-04-03T06:03:34;11.45;;;1.70;;
67558;SDS011;54388;53.536;49.300;2023-04-03T06:06:02;32.10;;;2.83;;
67558;SDS011;54388;53.536;49.300;2023-04-03T06:08:30;87.32;;;32.45;;
67558;SDS011;54388;53.536;49.300;2023-04-03T06:10:57;26.80;;;2.15;;
67558;SDS011;54388;53.536;49.300;2023-04-03T06:13:24;12.75;;;2.35;;
67558;SDS011;54388;53.536;49.300;2023-04-03T06:15:51;25.48;;;3.47;;
67558;SDS011;54388;53.536;49.300;2023-04-03T06:18:17;15.02;;;1.63;;
67558;SDS011;54388;53.536;49.300;2023-04-03T06:20:45;37.42;;;3.10;;
67558;SDS011;54388;53.536;49.300;2023-04-03T06:23:11;13.80;;;1.90;;
67558;SDS011;54388;53.536;49.300;2023-04-03T06:25:38;16.30;;;1.52;;
67558;SDS011;54388;53.536;49.300;2023-04-03T06:28:05;231.25;;;12.45;;
67558;SDS011;54388;53.536;49.300;2023-04-03T06:30:35;13.88;;;1.90;;
67558;SDS011;54388;53.536;49.300;2023-04-03T06:33:02;14.77;;;1.60;;
67558;SDS011;54388;53.536;49.300;2023-04-03T06:35:29;14.73;;;1.80;;
67558;SDS011;54388;53.536;49.300;2023-04-03T06:37:56;10.98;;;1.20;;
67558;SDS011;54388;53.536;49.300;2023-04-03T06:40:24;15.25;;;1.27;;
67558;SDS011;54388;53.536;49.300;2023-04-03T06:42:52;24.48;;;2.42;;
67558;SDS011;54388;53.536;49.300;2023-04-03T06:45:19;5.72;;;1.00;;
67558;SDS011;54388;53.536;49.300;2023-04-03T06:47:46;24.45;;;2.40;;
67558;SDS011;54388;53.536;49.300;2023-04-03T06:50:13;20.65;;;2.25;;
67558;SDS011;54388;53.536;49.300;2023-04-03T06:52:41;14.57;;;1.38;;
67558;SDS011;54388;53.536;49.300;2023-04-03T06:55:08;11.30;;;1.23;;
67558;SDS011;54388;53.536;49.300;2023-04-03T06:57:35;24.48;;;2.10;;
67558;SDS011;54388;53.536;49.300;2023-04-03T07:00:03;9.75;;;1.20;;
67558;SDS011;54388;53.536;49.300;2023-04-03T07:02:31;11.00;;;1.40;;
67558;SDS011;54388;53.536;49.300;2023-04-03T07:04:58;15.07;;;1.90;;
67558;SDS011;54388;53.536;49.300;2023-04-03T07:07:25;59.00;;;6.43;;
67558;SDS011;54388;53.536;49.300;2023-04-03T07:09:52;39.15;;;2.75;;
67558;SDS011;54388;53.536;49.300;2023-04-03T07:12:19;25.65;;;3.08;;
67558;SDS011;54388;53.536;49.300;2023-04-03T07:14:46;35.83;;;10.27;;
67558;SDS011;54388;53.536;49.300;2023-04-03T07:17:13;17.05;;;1.92;;
67558;SDS011;54388;53.536;49.300;2023-04-03T07:19:40;28.83;;;3.15;;
67558;SDS011;54388;53.536;49.300;2023-04-03T07:22:07;8.65;;;1.45;;
67558;SDS011;54388;53.536;49.300;2023-04-03T07:24:34;26.20;;;2.53;;
67558;SDS011;54388;53.536;49.300;2023-04-03T07:27:01;5.97;;;0.93;;
67558;SDS011;54388;53.536;49.300;2023-04-03T07:29:28;14.30;;;1.25;;
67558;SDS011;54388;53.536;49.300;2023-04-03T07:31:56;15.63;;;1.90;;
67558;SDS011;54388;53.536;49.300;2023-04-03T07:34:23;10.55;;;1.10;;
67558;SDS011;54388;53.536;49.300;2023-04-03T07:36:50;21.40;;;1.92;;
67558;SDS011;54388;53.536;49.300;2023-04-03T07:39:17;17.08;;;2.08;;
67558;SDS011;54388;53.536;49.300;2023-04-03T07:41:44;12.00;;;1.55;;
67558;SDS011;54388;53.536;49.300;2023-04-03T07:44:12;8.25;;;1.13;;
67558;SDS011;54388;53.536;49.300;2023-04-03T07:46:38;13.55;;;1.20;;
67558;SDS011;54388;53.536;49.300;2023-04-03T07:49:06;17.00;;;1.80;;
67558;SDS011;54388;53.536;49.300;2023-04-03T07:51:33;6.97;;;1.10;;
67558;SDS011;54388;53.536;49.300;2023-04-03T07:54:02;18.55;;;2.53;;
67558;SDS011;54388;53.536;49.300;2023-04-03T07:56:29;8.63;;;1.30;;
67558;SDS011;54388;53.536;49.300;2023-04-03T07:58:56;9.38;;;1.02;;
67558;SDS011;54388;53.536;49.300;2023-04-03T08:01:23;16.13;;;2.15;;
67558;SDS011;54388;53.536;49.300;2023-04-03T08:03:49;8.18;;;1.90;;
67558;SDS011;54388;53.536;49.300;2023-04-03T08:06:16;14.55;;;1.92;;
67558;SDS011;54388;53.536;49.300;2023-04-03T08:08:43;14.05;;;1.70;;
67558;SDS011;54388;53.536;49.300;2023-04-03T08:11:10;13.32;;;2.30;;
67558;SDS011;54388;53.536;49.300;2023-04-03T08:13:37;10.50;;;1.48;;
67558;SDS011;54388;53.536;49.300;2023-04-03T08:16:08;7.07;;;1.90;;
67558;SDS011;54388;53.536;49.300;2023-04-03T08:18:37;9.00;;;1.83;;
67558;SDS011;54388;53.536;49.300;2023-04-03T08:21:05;7.15;;;1.23;;
67558;SDS011;54388;53.536;49.300;2023-04-03T08:23:33;11.52;;;1.50;;
67558;SDS011;54388;53.536;49.300;2023-04-03T08:26:04;8.63;;;1.42;;
67558;SDS011;54388;53.536;49.300;2023-04-03T08:28:33;15.15;;;1.60;;
67558;SDS011;54388;53.536;49.300;2023-04-03T08:31:03;12.82;;;1.90;;
67558;SDS011;54388;53.536;49.300;2023-04-03T08:33:36;5.85;;;1.55;;
67558;SDS011;54388;53.536;49.300;2023-04-03T08:36:05;10.98;;;1.30;;
67558;SDS011;54388;53.536;49.300;2023-04-03T08:38:36;19.13;;;2.03;;
67558;SDS011;54388;53.536;49.300;2023-04-03T08:49:02;7.30;;;1.55;;
67558;SDS011;54388;53.536;49.300;2023-04-03T08:51:36;12.60;;;1.88;;
67558;SDS011;54388;53.536;49.300;2023-04-03T08:54:06;13.98;;;2.05;;
67558;SDS011;54388;53.536;49.300;2023-04-03T08:56:49;16.60;;;1.83;;
67558;SDS011;54388;53.536;49.300;2023-04-03T08:59:17;9.85;;;1.65;;
67558;SDS011;54388;53.536;49.300;2023-04-03T09:01:53;9.38;;;1.45;;
67558;SDS011;54388;53.536;49.300;2023-04-03T09:04:21;20.02;;;2.97;;
67558;SDS011;54388;53.536;49.300;2023-04-03T09:06:58;11.32;;;1.60;;
67558;SDS011;54388;53.536;49.300;2023-04-03T09:09:40;10.25;;;1.30;;
67558;SDS011;54388;53.536;49.300;2023-04-03T09:23:30;16.83;;;1.90;;
67558;SDS011;54388;53.536;49.300;2023-04-03T09:26:25;22.90;;;1.60;;
67558;SDS011;54388;53.536;49.300;2023-04-03T09:28:54;19.63;;;2.10;;
67558;SDS011;54388;53.536;49.300;2023-04-03T09:31:26;8.00;;;1.50;;
67558;SDS011;54388;53.536;49.300;2023-04-03T09:33:56;14.02;;;1.50;;
67558;SDS011;54388;53.536;49.300;2023-04-03T09:36:44;7.05;;;1.50;;
67558;SDS011;54388;53.536;49.300;2023-04-03T09:39:14;9.98;;;1.80;;
67558;SDS011;54388;53.536;49.300;2023-04-03T09:42:32;15.40;;;1.63;;
67558;SDS011;54388;53.536;49.300;2023-04-03T09:44:40;8.60;;;1.35;;
67558;SDS011;54388;53.536;49.300;2023-04-03T09:47:27;12.57;;;1.50;;
67558;SDS011;54388;53.536;49.300;2023-04-03T09:52:41;10.00;;;1.33;;
67558;SDS011;54388;53.536;49.300;2023-04-03T09:55:17;16.90;;;1.77;;
67558;SDS011;54388;53.536;49.300;2023-04-03T09:57:53;11.35;;;1.70;;
67558;SDS011;54388;53.536;49.300;2023-04-03T10:00:22;14.32;;;2.00;;
67558;SDS011;54388;53.536;49.300;2023-04-03T10:05:48;9.90;;;1.35;;
67558;SDS011;54388;53.536;49.300;2023-04-03T10:10:44;17.95;;;1.70;;
67558;SDS011;54388;53.536;49.300;2023-04-03T10:13:19;15.50;;;1.27;;
67558;SDS011;54388;53.536;49.300;2023-04-03T10:15:49;12.20;;;1.40;;
67558;SDS011;54388;53.536;49.300;2023-04-03T10:23:49;17.65;;;1.00;;
67558;SDS011;54388;53.536;49.300;2023-04-03T10:35:05;19.52;;;2.33;;
67558;SDS011;54388;53.536;49.300;2023-04-03T10:43:50;11.10;;;1.33;;
67558;SDS011;54388;53.536;49.300;2023-04-03T10:46:36;12.68;;;1.63;;
67558;SDS011;54388;53.536;49.300;2023-04-03T10:52:06;12.68;;;1.70;;
67558;SDS011;54388;53.536;49.300;2023-04-03T10:54:49;11.07;;;1.80;;
67558;SDS011;54388;53.536;49.300;2023-04-03T10:57:24;12.23;;;1.58;;
67558;SDS011;54388;53.536;49.300;2023-04-03T10:59:55;23.20;;;2.75;;
67558;SDS011;54388;53.536;49.300;2023-04-03T11:02:47;16.75;;;1.88;;
67558;SDS011;54388;53.536;49.300;2023-04-03T11:05:30;9.48;;;1.40;;
67558;SDS011;54388;53.536;49.300;2023-04-03T11:08:08;13.70;;;1.65;;
67558;SDS011;54388;53.536;49.300;2023-04-03T11:11:00;15.57;;;1.40;;
67558;SDS011;54388;53.536;49.300;2023-04-03T11:16:19;19.85;;;1.80;;
67558;SDS011;54388;53.536;49.300;2023-04-03T11:21:37;13.25;;;1.38;;
67558;SDS011;54388;53.536;49.300;2023-04-03T11:24:17;18.30;;;1.67;;
67558;SDS011;54388;53.536;49.300;2023-04-03T11:26:48;8.65;;;1.27;;
67558;SDS011;54388;53.536;49.300;2023-04-03T11:29:19;14.82;;;1.90;;
67558;SDS011;54388;53.536;49.300;2023-04-03T11:32:01;16.67;;;1.90;;
67558;SDS011;54388;53.536;49.300;2023-04-03T11:34:37;28.10;;;2.28;;
67558;SDS011;54388;53.536;49.300;2023-04-03T11:37:22;18.75;;;2.08;;
67558;SDS011;54388;53.536;49.300;2023-04-03T11:39:59;10.13;;;1.67;;
67558;SDS011;54388;53.536;49.300;2023-04-03T11:43:18;13.93;;;1.58;;
67558;SDS011;54388;53.536;49.300;2023-04-03T11:46:07;12.23;;;1.27;;
67558;SDS011;54388;53.536;49.300;2023-04-03T11:53:42;13.95;;;1.88;;
67558;SDS011;54388;53.536;49.300;2023-04-03T12:01:48;23.30;;;2.00;;
67558;SDS011;54388;53.536;49.300;2023-04-03T12:04:17;16.40;;;2.40;;
67558;SDS011;54388;53.536;49.300;2023-04-03T12:09:26;12.77;;;2.10;;
67558;SDS011;54388;53.536;49.300;2023-04-03T12:11:53;15.43;;;1.70;;
67558;SDS011;54388;53.536;49.300;2023-04-03T12:14:22;22.27;;;2.63;;
67558;SDS011;54388;53.536;49.300;2023-04-03T12:16:53;17.13;;;2.67;;
67558;SDS011;54388;53.536;49.300;2023-04-03T12:19:30;14.20;;;2.28;;
67558;SDS011;54388;53.536;49.300;2023-04-03T12:22:10;14.52;;;1.80;;
67558;SDS011;54388;53.536;49.300;2023-04-03T12:24:47;18.98;;;2.00;;
67558;SDS011;54388;53.536;49.300;2023-04-03T12:29:55;31.92;;;3.33;;
67558;SDS011;54388;53.536;49.300;2023-04-03T12:43:59;42.47;;;4.07;;
67558;SDS011;54388;53.536;49.300;2023-04-03T12:46:50;36.95;;;3.92;;
67558;SDS011;54388;53.536;49.300;2023-04-03T12:49:30;22.00;;;2.03;;
67558;SDS011;54388;53.536;49.300;2023-04-03T12:52:45;16.25;;;2.30;;
67558;SDS011;54388;53.536;49.300;2023-04-03T12:55:08;26.05;;;3.20;;
67558;SDS011;54388;53.536;49.300;2023-04-03T12:57:44;22.67;;;1.60;;
67558;SDS011;54388;53.536;49.300;2023-04-03T13:03:01;26.67;;;3.40;;
67558;SDS011;54388;53.536;49.300;2023-04-03T13:05:30;27.48;;;2.38;;
67558;SDS011;54388;53.536;49.300;2023-04-03T13:08:16;27.15;;;3.05;;
67558;SDS011;54388;53.536;49.300;2023-04-03T13:10:48;20.63;;;2.20;;
67558;SDS011;54388;53.536;49.300;2023-04-03T13:13:25;19.77;;;2.25;;
67558;SDS011;54388;53.536;49.300;2023-04-03T13:15:52;14.75;;;1.50;;
67558;SDS011;54388;53.536;49.300;2023-04-03T13:20:52;57.58;;;5.68;;
67558;SDS011;54388;53.536;49.300;2023-04-03T13:23:24;45.20;;;3.50;;
67558;SDS011;54388;53.536;49.300;2023-04-03T13:25:50;25.30;;;1.90;;
67558;SDS011;54388;53.536;49.300;2023-04-03T13:28:22;19.10;;;1.80;;
67558;SDS011;54388;53.536;49.300;2023-04-03T13:31:00;22.05;;;1.83;;
67558;SDS011;54388;53.536;49.300;2023-04-03T13:33:32;18.50;;;2.25;;
67558;SDS011;54388;53.536;49.300;2023-04-03T13:36:07;25.95;;;2.30;;
67558;SDS011;54388;53.536;49.300;2023-04-03T13:38:58;50.45;;;4.50;;
67558;SDS011;54388;53.536;49.300;2023-04-03T13:41:36;30.65;;;3.03;;
67558;SDS011;54388;53.536;49.300;2023-04-03T13:46:50;33.58;;;3.17;;
67558;SDS011;54388;53.536;49.300;2023-04-03T13:49:34;41.05;;;2.75;;
67558;SDS011;54388;53.536;49.300;2023-04-03T13:54:53;35.83;;;4.00;;
67558;SDS011;54388;53.536;49.300;2023-04-03T13:57:22;29.08;;;2.72;;
67558;SDS011;54388;53.536;49.300;2023-04-03T13:59:49;24.60;;;1.95;;
67558;SDS011;54388;53.536;49.300;2023-04-03T14:02:20;20.38;;;2.60;;
67558;SDS011;54388;53.536;49.300;2023-04-03T14:04:58;17.33;;;2.38;;
67558;SDS011;54388;53.536;49.300;2023-04-03T14:07:28;28.38;;;2.63;;
67558;SDS011;54388;53.536;49.300;2023-04-03T14:09:56;24.88;;;2.38;;
67558;SDS011;54388;53.536;49.300;2023-04-03T14:14:55;31.55;;;2.47;;
67558;SDS011;54388;53.536;49.300;2023-04-03T14:17:23;28.30;;;3.05;;
67558;SDS011;54388;53.536;49.300;2023-04-03T14:19:52;23.83;;;2.35;;
67558;SDS011;54388;53.536;49.300;2023-04-03T14:22:24;21.48;;;1.90;;
67558;SDS011;54388;53.536;49.300;2023-04-03T14:24:55;22.67;;;1.60;;
67558;SDS011;54388;53.536;49.300;2023-04-03T14:30:00;20.33;;;1.95;;
67558;SDS011;54388;53.536;49.300;2023-04-03T14:32:29;16.65;;;1.77;;
67558;SDS011;54388;53.536;49.300;2023-04-03T14:34:56;17.77;;;1.60;;
67558;SDS011;54388;53.536;49.300;2023-04-03T14:37:24;22.40;;;2.28;;
67558;SDS011;54388;53.536;49.300;2023-04-03T14:39:53;18.75;;;2.05;;
67558;SDS011;54388;53.536;49.300;2023-04-03T14:42:26;16.98;;;1.80;;
67558;SDS011;54388;53.536;49.300;2023-04-03T14:44:58;40.55;;;3.15;;
67558;SDS011;54388;53.536;49.300;2023-04-03T14:47:28;35.97;;;3.53;;
67558;SDS011;54388;53.536;49.300;2023-04-03T14:49:56;30.17;;;2.85;;
67558;SDS011;54388;53.536;49.300;2023-04-03T14:52:31;24.90;;;2.45;;
67558;SDS011;54388;53.536;49.300;2023-04-03T14:55:00;35.15;;;3.83;;
67558;SDS011;54388;53.536;49.300;2023-04-03T14:57:28;28.58;;;3.47;;
67558;SDS011;54388;53.536;49.300;2023-04-03T14:59:56;30.50;;;2.47;;
67558;SDS011;54388;53.536;49.300;2023-04-03T15:02:30;62.22;;;4.35;;
67558;SDS011;54388;53.536;49.300;2023-04-03T15:05:02;50.40;;;4.13;;
67558;SDS011;54388;53.536;49.300;2023-04-03T15:07:32;44.88;;;4.22;;
67558;SDS011;54388;53.536;49.300;2023-04-03T15:12:43;32.08;;;3.30;;
67558;SDS011;54388;53.536;49.300;2023-04-03T15:15:11;44.40;;;3.72;;
67558;SDS011;54388;53.536;49.300;2023-04-03T15:17:38;39.17;;;4.07;;
67558;SDS011;54388;53.536;49.300;2023-04-03T15:20:16;56.95;;;6.55;;
67558;SDS011;54388;53.536;49.300;2023-04-03T15:22:44;46.35;;;5.78;;
67558;SDS011;54388;53.536;49.300;2023-04-03T15:25:11;61.78;;;6.13;;
67558;SDS011;54388;53.536;49.300;2023-04-03T15:27:38;78.18;;;5.63;;
67558;SDS011;54388;53.536;49.300;2023-04-03T15:30:06;84.82;;;8.30;;
67558;SDS011;54388;53.536;49.300;2023-04-03T15:32:35;52.90;;;5.30;;
67558;SDS011;54388;53.536;49.300;2023-04-03T15:35:02;51.15;;;4.63;;
67558;SDS011;54388;53.536;49.300;2023-04-03T15:37:30;57.33;;;4.72;;
67558;SDS011;54388;53.536;49.300;2023-04-03T15:39:58;38.38;;;3.50;;
67558;SDS011;54388;53.536;49.300;2023-04-03T15:42:25;49.38;;;4.32;;
67558;SDS011;54388;53.536;49.300;2023-04-03T15:44:51;58.40;;;5.80;;
67558;SDS011;54388;53.536;49.300;2023-04-03T15:47:19;47.45;;;4.20;;
67558;SDS011;54388;53.536;49.300;2023-04-03T15:49:46;64.00;;;4.47;;
67558;SDS011;54388;53.536;49.300;2023-04-03T15:52:13;41.50;;;4.18;;
67558;SDS011;54388;53.536;49.300;2023-04-03T15:54:40;73.55;;;5.60;;
67558;SDS011;54388;53.536;49.300;2023-04-03T15:57:08;21.63;;;3.67;;
67558;SDS011;54388;53.536;49.300;2023-04-03T15:59:35;26.33;;;2.60;;
67558;SDS011;54388;53.536;49.300;2023-04-03T16:02:03;64.95;;;5.70;;
67558;SDS011;54388;53.536;49.300;2023-04-03T16:04:32;66.38;;;5.53;;
67558;SDS011;54388;53.536;49.300;2023-04-03T16:07:02;46.65;;;3.80;;
67558;SDS011;54388;53.536;49.300;2023-04-03T16:09:34;48.08;;;4.07;;
67558;SDS011;54388;53.536;49.300;2023-04-03T16:12:02;38.78;;;4.38;;
67558;SDS011;54388;53.536;49.300;2023-04-03T16:14:30;34.47;;;3.53;;
67558;SDS011;54388;53.536;49.300;2023-04-03T16:16:57;36.67;;;3.53;;
67558;SDS011;54388;53.536;49.300;2023-04-03T16:19:25;33.85;;;3.05;;
67558;SDS011;54388;53.536;49.300;2023-04-03T16:21:53;28.80;;;2.30;;
67558;SDS011;54388;53.536;49.300;2023-04-03T16:24:20;25.98;;;2.65;;
67558;SDS011;54388;53.536;49.300;2023-04-03T16:26:47;43.38;;;4.15;;
67558;SDS011;54388;53.536;49.300;2023-04-03T16:29:15;37.13;;;2.80;;